createdAt,value
2017-11-01T00:00:22.387Z,101714.22
2017-11-01T00:02:52.156Z,101713.19
2017-11-01T00:05:20.511Z,101709.97
2017-11-01T00:07:48.962Z,101709.58
2017-11-01T00:10:18.256Z,101712.93
2017-11-01T00:12:47.180Z,101701.02
2017-11-01T00:15:16.350Z,101703.45
2017-11-01T00:17:45.742Z,101700.47
2017-11-01T00:20:14.419Z,101698.64
2017-11-01T00:22:43.605Z,101695.49
2017-11-01T00:25:12.034Z,101698.77
2017-11-01T00:27:41.211Z,101698.45
2017-11-01T00:30:09.578Z,101697.06
2017-11-01T00:32:38.629Z,101692.69
2017-11-01T00:35:07.815Z,101692.91
2017-11-01T00:37:36.173Z,101685.96
2017-11-01T00:40:06.078Z,101685.02
2017-11-01T00:42:34.462Z,101678.56
2017-11-01T00:45:03.836Z,101677.59
2017-11-01T00:47:32.213Z,101673.80
2017-11-01T00:50:00.585Z,101672.82
2017-11-01T00:52:28.933Z,101671.88
2017-11-01T00:54:57.918Z,101665.61
2017-11-01T00:57:26.274Z,101667.55
2017-11-01T00:59:54.639Z,101662.09
2017-11-01T01:02:24.685Z,101663.16
2017-11-01T01:04:53.754Z,101651.81
2017-11-01T01:07:22.378Z,101652.94
2017-11-01T01:09:51.790Z,101651.79
2017-11-01T01:12:20.127Z,101652.45
2017-11-01T01:14:50.188Z,101643.69
2017-11-01T01:17:18.853Z,101639.95
2017-11-01T01:19:47.189Z,101640.50
2017-11-01T01:22:15.550Z,101643.47
2017-11-01T01:24:44.565Z,101636.73
2017-11-01T01:27:12.926Z,101645.12
2017-11-01T01:29:41.315Z,101638.09
2017-11-01T01:32:10.838Z,101630.86
2017-11-01T01:34:39.190Z,101635.39
2017-11-01T01:37:08.150Z,101630.33
2017-11-01T01:39:37.442Z,101635.84
2017-11-01T01:42:06.551Z,101627.41
2017-11-01T01:44:39.402Z,101634.80
2017-11-01T01:47:08.654Z,101630.59
2017-11-01T01:49:37.041Z,101631.30
2017-11-01T01:52:05.615Z,101631.11
2017-11-01T01:54:34.007Z,101623.67
2017-11-01T01:57:02.390Z,101622.05
2017-11-01T01:59:30.751Z,101632.30
2017-11-01T02:01:59.427Z,101621.80
2017-11-01T02:04:28.554Z,101619.73
2017-11-01T02:06:56.925Z,101619.60
2017-11-01T02:09:25.311Z,101613.83
2017-11-01T02:11:53.741Z,101619.53
2017-11-01T02:14:22.860Z,101618.01
2017-11-01T02:16:52.005Z,101614.08
2017-11-01T02:19:20.356Z,101616.31
2017-11-01T02:21:48.700Z,101610.63
2017-11-01T02:24:17.139Z,101606.56
2017-11-01T02:26:46.703Z,101606.98
2017-11-01T02:29:15.065Z,101606.00
2017-11-01T02:31:44.224Z,101610.20
2017-11-01T02:34:12.575Z,101603.25
2017-11-01T02:36:40.936Z,101606.02
2017-11-01T02:39:09.303Z,101598.34
2017-11-01T02:41:38.941Z,101601.33
2017-11-01T02:44:07.315Z,101599.75
2017-11-01T02:46:36.274Z,101597.32
2017-11-01T02:49:04.647Z,101600.39
2017-11-01T02:51:33.848Z,101601.30
2017-11-01T02:54:02.291Z,101597.38
2017-11-01T02:56:32.098Z,101598.52
2017-11-01T02:59:01.201Z,101593.22
2017-11-01T03:01:32.341Z,101589.61
2017-11-01T03:04:00.745Z,101589.98
2017-11-01T03:06:29.245Z,101585.05
2017-11-01T03:08:58.603Z,101583.56
2017-11-01T03:11:27.529Z,101580.73
2017-11-01T03:13:55.886Z,101575.96
2017-11-01T03:16:24.321Z,101571.00
2017-11-01T03:18:52.747Z,101578.05
2017-11-01T03:21:21.114Z,101575.48
2017-11-01T03:23:50.270Z,101576.20
2017-11-01T03:26:18.637Z,101563.21
2017-11-01T03:28:47.804Z,101559.17
2017-11-01T03:31:16.416Z,101562.08
2017-11-01T03:33:45.866Z,101561.34
2017-11-01T03:36:14.242Z,101550.91
2017-11-01T03:38:42.800Z,101558.51
2017-11-01T03:41:11.977Z,101561.32
2017-11-01T03:43:41.129Z,101554.78
2017-11-01T03:46:09.558Z,101568.02
2017-11-01T03:48:37.994Z,101558.55
2017-11-01T03:51:06.499Z,101557.94
2017-11-01T03:53:34.925Z,101564.75
2017-11-01T03:56:03.374Z,101560.02
2017-11-01T03:58:31.744Z,101555.09
2017-11-01T04:01:00.202Z,101559.92
2017-11-01T04:03:29.374Z,101561.61
2017-11-01T04:05:57.805Z,101558.09
2017-11-01T04:08:26.216Z,101555.28
2017-11-01T04:10:55.457Z,101550.48
2017-11-01T04:13:23.917Z,101557.00
2017-11-01T04:15:52.705Z,101554.95
2017-11-01T04:21:30.496Z,101552.92
2017-11-01T04:24:00.014Z,101553.94
2017-11-01T04:26:29.466Z,101543.57
2017-11-01T04:28:58.956Z,101553.05
2017-11-01T04:31:27.496Z,101545.52
2017-11-01T04:33:56.643Z,101546.95
2017-11-01T04:36:26.133Z,101548.39
2017-11-01T04:38:55.004Z,101535.19
2017-11-01T04:41:23.744Z,101538.87
2017-11-01T04:43:52.386Z,101539.91
2017-11-01T04:46:20.816Z,101538.64
2017-11-01T04:48:51.958Z,101535.27
2017-11-01T04:51:27.673Z,101537.91
2017-11-01T04:53:56.026Z,101534.11
2017-11-01T04:56:25.134Z,101533.68
2017-11-01T04:58:54.223Z,101534.14
2017-11-01T05:01:22.576Z,101545.17
2017-11-01T05:03:51.694Z,101528.91
2017-11-01T05:06:20.078Z,101532.60
2017-11-01T05:08:51.418Z,101530.58
2017-11-01T05:11:22.938Z,101532.98
2017-11-01T05:13:58.395Z,101534.70
2017-11-01T05:16:27.648Z,101533.02
2017-11-01T05:18:55.993Z,101529.64
2017-11-01T05:21:25.037Z,101539.66
2017-11-01T05:23:53.413Z,101543.59
2017-11-01T05:26:21.761Z,101533.66
2017-11-01T05:28:50.117Z,101532.55
2017-11-01T05:31:20.857Z,101521.43
2017-11-01T05:33:49.200Z,101529.96
2017-11-01T05:36:17.632Z,101524.09
2017-11-01T05:38:46.023Z,101532.50
2017-11-01T05:41:14.369Z,101526.39
2017-11-01T05:43:43.486Z,101533.21
2017-11-01T05:46:11.861Z,101527.33
2017-11-01T05:48:40.937Z,101528.07
2017-11-01T05:51:10.158Z,101531.03
2017-11-01T05:53:39.665Z,101523.83
2017-11-01T05:56:08.025Z,101530.39
2017-11-01T05:58:37.144Z,101539.72
2017-11-01T06:01:06.430Z,101525.37
2017-11-01T06:03:34.802Z,101539.98
2017-11-01T06:06:03.869Z,101539.95
2017-11-01T06:08:32.626Z,101538.70
2017-11-01T06:11:01.977Z,101543.45
2017-11-01T06:13:30.309Z,101547.27
2017-11-01T06:16:00.628Z,101541.50
2017-11-01T06:18:30.651Z,101547.05
2017-11-01T06:20:58.998Z,101551.73
2017-11-01T06:23:28.135Z,101561.12
2017-11-01T06:25:56.508Z,101555.50
2017-11-01T06:28:24.876Z,101552.63
2017-11-01T06:30:54.600Z,101551.15
2017-11-01T06:33:23.984Z,101560.08
2017-11-01T06:35:52.334Z,101555.02
2017-11-01T06:38:22.514Z,101554.58
2017-11-01T06:40:51.165Z,101556.94
2017-11-01T06:43:19.584Z,101558.91
2017-11-01T06:45:47.942Z,101560.27
2017-11-01T06:48:16.293Z,101562.80
2017-11-01T06:50:45.422Z,101567.59
2017-11-01T06:53:13.800Z,101560.34
2017-11-01T06:55:42.357Z,101570.02
2017-11-01T06:58:11.400Z,101577.19
2017-11-01T07:00:39.889Z,101571.51
2017-11-01T07:06:09.858Z,101582.63
2017-11-01T07:08:38.221Z,101584.75
2017-11-01T07:11:07.101Z,101583.48
2017-11-01T07:13:35.516Z,101582.02
2017-11-01T07:16:04.629Z,101586.29
2017-11-01T07:18:32.990Z,101585.76
2017-11-01T07:21:01.881Z,101589.97
2017-11-01T07:23:30.533Z,101581.46
2017-11-01T07:25:59.580Z,101583.75
2017-11-01T07:28:28.301Z,101578.56
2017-11-01T07:30:57.428Z,101584.13
2017-11-01T07:33:26.553Z,101580.00
2017-11-01T07:35:55.701Z,101585.84
2017-11-01T07:38:24.821Z,101580.44
2017-11-01T07:40:53.187Z,101575.95
2017-11-01T07:43:23.289Z,101584.95
2017-11-01T07:45:51.660Z,101581.97
2017-11-01T07:48:20.046Z,101590.09
2017-11-01T07:50:48.524Z,101585.34
2017-11-01T07:53:16.870Z,101589.23
2017-11-01T07:55:45.218Z,101581.94
2017-11-01T07:58:14.484Z,101595.64
2017-11-01T08:00:44.312Z,101591.22
2017-11-01T08:03:13.503Z,101591.94
2017-11-01T08:05:42.077Z,101585.55
2017-11-01T08:08:10.442Z,101591.30
2017-11-01T08:10:39.749Z,101595.74
2017-11-01T08:13:10.294Z,101594.84
2017-11-01T08:15:38.861Z,101596.33
2017-11-01T08:18:07.232Z,101595.97
2017-11-01T08:20:35.627Z,101596.82
2017-11-01T08:23:03.974Z,101602.39
2017-11-01T08:25:32.852Z,101602.68
2017-11-01T08:28:01.298Z,101596.22
2017-11-01T08:30:30.482Z,101596.70
2017-11-01T08:32:58.853Z,101596.79
2017-11-01T08:35:27.537Z,101597.28
2017-11-01T08:37:56.630Z,101592.59
2017-11-01T08:40:24.977Z,101584.60
2017-11-01T08:42:53.713Z,101595.25
2017-11-01T08:45:22.063Z,101595.66
2017-11-01T08:47:50.425Z,101590.33
2017-11-01T08:50:19.416Z,101588.40
2017-11-01T08:52:47.784Z,101594.22
2017-11-01T08:55:16.893Z,101593.37
2017-11-01T08:57:45.261Z,101589.87
2017-11-01T09:00:13.723Z,101589.18
2017-11-01T09:02:42.109Z,101585.27
2017-11-01T09:05:11.293Z,101593.72
2017-11-01T09:07:41.134Z,101593.28
2017-11-01T09:10:11.713Z,101595.08
2017-11-01T09:12:40.391Z,101598.66
2017-11-01T09:15:08.762Z,101604.96
2017-11-01T09:17:37.197Z,101608.71
2017-11-01T09:20:05.572Z,101603.94
2017-11-01T09:22:34.831Z,101607.13
2017-11-01T09:25:03.206Z,101609.44
2017-11-01T09:27:32.337Z,101610.23
2017-11-01T09:30:00.760Z,101614.59
2017-11-01T09:32:29.143Z,101616.89
2017-11-01T09:34:58.437Z,101615.19
2017-11-01T09:37:26.791Z,101618.95
2017-11-01T09:39:56.313Z,101613.22
2017-11-01T09:42:25.497Z,101621.24
2017-11-01T09:44:55.282Z,101616.05
2017-11-01T09:47:23.646Z,101607.19
2017-11-01T09:49:52.050Z,101604.30
2017-11-01T09:52:20.397Z,101600.28
2017-11-01T09:54:50.482Z,101601.05
2017-11-01T09:57:20.423Z,101611.78
2017-11-01T09:59:49.511Z,101603.16
2017-11-01T10:02:20.138Z,101610.25
2017-11-01T10:04:48.502Z,101610.09
2017-11-01T10:07:18.645Z,101610.59
2017-11-01T10:09:47.744Z,101610.27
2017-11-01T10:12:16.865Z,101604.47
2017-11-01T10:14:46.057Z,101601.14
2017-11-01T10:17:14.452Z,101599.86
2017-11-01T10:19:43.437Z,101605.83
2017-11-01T10:22:12.607Z,101608.22
2017-11-01T10:24:42.210Z,101606.42
2017-11-01T10:27:10.562Z,101602.84
2017-11-01T10:29:39.786Z,101601.14
2017-11-01T10:32:08.305Z,101606.17
2017-11-01T10:34:36.694Z,101602.08
2017-11-01T10:37:05.074Z,101597.73
2017-11-01T10:39:34.224Z,101603.61
2017-11-01T10:42:03.775Z,101595.77
2017-11-01T10:44:32.127Z,101585.80
2017-11-01T10:47:00.498Z,101588.11
2017-11-01T10:49:28.907Z,101588.10
2017-11-01T10:51:57.246Z,101591.69
2017-11-01T10:54:25.590Z,101583.41
2017-11-01T10:56:53.972Z,101578.39
2017-11-01T10:59:22.301Z,101580.01
2017-11-01T11:01:50.656Z,101578.65
2017-11-01T11:04:20.102Z,101580.02
2017-11-01T11:06:48.453Z,101574.73
2017-11-01T11:09:16.788Z,101571.23
2017-11-01T11:11:47.770Z,101577.70
2017-11-01T11:14:16.939Z,101566.78
2017-11-01T11:16:45.290Z,101565.61
2017-11-01T11:19:13.677Z,101572.85
2017-11-01T11:21:42.028Z,101560.84
2017-11-01T11:24:10.350Z,101556.75
2017-11-01T11:26:40.266Z,101553.62
2017-11-01T11:29:10.284Z,101557.41
2017-11-01T11:31:38.643Z,101548.39
2017-11-01T11:34:08.259Z,101546.09
2017-11-01T11:36:36.593Z,101547.38
2017-11-01T11:39:04.941Z,101541.19
2017-11-01T11:41:33.323Z,101548.22
2017-11-01T11:44:01.674Z,101552.23
2017-11-01T11:46:30.020Z,101548.22
2017-11-01T11:48:58.593Z,101549.28
2017-11-01T11:51:26.939Z,101553.81
2017-11-01T11:53:55.299Z,101563.62
2017-11-01T11:56:25.414Z,101551.96
2017-11-01T11:58:53.766Z,101545.75
2017-11-01T12:01:22.145Z,101549.84
2017-11-01T12:03:51.854Z,101549.76
2017-11-01T12:06:20.217Z,101545.16
2017-11-01T12:08:48.584Z,101544.47
2017-11-01T12:11:17.355Z,101545.25
2017-11-01T12:13:45.720Z,101536.64
2017-11-01T12:16:15.314Z,101527.94
2017-11-01T12:18:44.199Z,101531.20
2017-11-01T12:21:12.774Z,101531.28
2017-11-01T12:23:41.129Z,101533.63
2017-11-01T12:26:10.831Z,101540.55
2017-11-01T12:28:39.190Z,101526.39
2017-11-01T12:31:07.540Z,101528.89
2017-11-01T12:33:36.269Z,101533.30
2017-11-01T12:36:04.659Z,101523.59
2017-11-01T12:38:33.016Z,101524.47
2017-11-01T12:41:01.391Z,101533.57
2017-11-01T12:43:30.107Z,101523.81
2017-11-01T12:45:59.373Z,101533.61
2017-11-01T12:48:28.526Z,101530.52
2017-11-01T12:50:57.213Z,101529.35
2017-11-01T12:53:25.580Z,101535.33
2017-11-01T12:55:54.125Z,101527.86
2017-11-01T12:58:22.467Z,101523.31
2017-11-01T13:00:51.590Z,101519.75
2017-11-01T13:03:19.984Z,101523.06
2017-11-01T13:05:48.357Z,101521.60
2017-11-01T13:08:17.680Z,101526.95
2017-11-01T13:10:46.814Z,101520.50
2017-11-01T13:13:15.195Z,101521.68
2017-11-01T13:15:43.573Z,101520.97
2017-11-01T13:18:14.037Z,101522.44
2017-11-01T13:20:43.180Z,101520.91
2017-11-01T13:23:11.897Z,101522.60
2017-11-01T13:25:41.225Z,101522.28
2017-11-01T13:28:10.934Z,101528.57
2017-11-01T13:30:41.105Z,101524.64
2017-11-01T13:33:09.484Z,101524.98
2017-11-01T13:35:37.867Z,101518.59
2017-11-01T13:38:06.212Z,101518.31
2017-11-01T13:40:35.202Z,101513.73
2017-11-01T13:43:03.550Z,101512.67
2017-11-01T13:45:32.715Z,101507.08
2017-11-01T13:48:01.089Z,101502.79
2017-11-01T13:50:30.275Z,101504.54
2017-11-01T13:52:59.187Z,101499.40
2017-11-01T13:55:28.274Z,101509.81
2017-11-01T13:57:56.640Z,101496.17
2017-11-01T14:00:24.974Z,101493.29
2017-11-01T14:02:54.625Z,101493.14
2017-11-01T14:05:24.146Z,101488.61
2017-11-01T14:07:53.106Z,101488.77
2017-11-01T14:10:21.486Z,101491.00
2017-11-01T14:12:49.833Z,101486.75
2017-11-01T14:15:18.176Z,101486.42
2017-11-01T14:17:46.552Z,101491.34
2017-11-01T14:20:14.893Z,101490.65
2017-11-01T14:22:44.002Z,101483.97
2017-11-01T14:25:12.914Z,101490.38
2017-11-01T14:27:41.315Z,101489.02
2017-11-01T14:30:10.975Z,101494.56
2017-11-01T14:32:40.269Z,101489.69
2017-11-01T14:35:09.602Z,101490.64
2017-11-01T14:37:37.946Z,101485.37
2017-11-01T14:40:07.086Z,101485.53
2017-11-01T14:42:35.454Z,101478.23
2017-11-01T14:45:03.803Z,101474.52
2017-11-01T14:47:33.077Z,101472.28
2017-11-01T14:50:01.476Z,101470.14
2017-11-01T14:52:30.609Z,101463.47
2017-11-01T14:54:59.015Z,101459.88
2017-11-01T14:57:27.777Z,101462.24
2017-11-01T14:59:56.114Z,101467.13
2017-11-01T15:02:26.031Z,101480.92
2017-11-01T15:04:55.840Z,101485.02
2017-11-01T15:07:24.960Z,101465.94
2017-11-01T15:09:54.694Z,101480.38
2017-11-01T15:12:23.250Z,101482.48
2017-11-01T15:14:52.357Z,101474.86
2017-11-01T15:17:20.732Z,101465.09
2017-11-01T15:19:49.074Z,101459.46
2017-11-01T15:22:17.631Z,101471.83
2017-11-01T15:24:46.019Z,101467.30
2017-11-01T15:27:15.137Z,101465.27
2017-11-01T15:29:43.480Z,101464.25
2017-11-01T15:32:11.948Z,101451.38
2017-11-01T15:34:40.572Z,101448.97
2017-11-01T15:37:08.936Z,101454.42
2017-11-01T15:39:38.020Z,101451.05
2017-11-01T15:42:07.250Z,101459.74
2017-11-01T15:44:35.690Z,101459.06
2017-11-01T15:47:04.775Z,101456.42
2017-11-01T15:49:33.123Z,101456.08
2017-11-01T15:52:02.250Z,101454.55
2017-11-01T15:54:31.714Z,101454.81
2017-11-01T15:57:00.098Z,101453.19
2017-11-01T15:59:28.460Z,101451.83
2017-11-01T16:01:58.032Z,101457.11
2017-11-01T16:04:26.387Z,101460.77
2017-11-01T16:06:55.756Z,101459.16
2017-11-01T16:09:24.124Z,101454.20
2017-11-01T16:11:52.460Z,101450.55
2017-11-01T16:14:20.832Z,101436.50
2017-11-01T16:16:51.000Z,101438.96
2017-11-01T16:19:19.350Z,101439.38
2017-11-01T16:21:47.703Z,101438.20
2017-11-01T16:24:16.723Z,101443.82
2017-11-01T16:26:45.065Z,101434.03
2017-11-01T16:29:15.919Z,101436.25
2017-11-01T16:31:45.693Z,101435.14
2017-11-01T16:34:14.745Z,101443.23
2017-11-01T16:36:43.102Z,101448.42
2017-11-01T16:39:11.703Z,101439.31
2017-11-01T16:41:40.689Z,101437.60
2017-11-01T16:44:09.021Z,101424.33
2017-11-01T16:46:37.842Z,101415.39
2017-11-01T16:49:06.948Z,101420.27
2017-11-01T16:51:35.537Z,101416.96
2017-11-01T16:54:03.936Z,101423.70
2017-11-01T16:56:32.559Z,101413.35
2017-11-01T16:59:02.276Z,101401.83
2017-11-01T17:01:32.746Z,101384.02
2017-11-01T17:04:01.094Z,101388.20
2017-11-01T17:06:30.218Z,101397.31
2017-11-01T17:08:58.997Z,101395.22
2017-11-01T17:11:27.376Z,101404.89
2017-11-01T17:13:55.743Z,101408.12
2017-11-01T17:16:24.671Z,101411.88
2017-11-01T17:18:53.015Z,101420.88
2017-11-01T17:21:21.394Z,101408.55
2017-11-01T17:23:49.956Z,101417.27
2017-11-01T17:26:19.322Z,101430.03
2017-11-01T17:28:47.686Z,101429.56
2017-11-01T17:31:16.117Z,101436.36
2017-11-01T17:33:45.261Z,101431.09
2017-11-01T17:36:13.649Z,101438.30
2017-11-01T17:38:42.099Z,101433.91
2017-11-01T17:41:11.222Z,101435.27
2017-11-01T17:43:39.569Z,101436.64
2017-11-01T17:46:08.115Z,101434.83
2017-11-01T17:48:36.471Z,101430.84
2017-11-01T17:51:05.727Z,101418.89
2017-11-01T17:53:34.901Z,101425.23
2017-11-01T17:56:03.593Z,101421.86
2017-11-01T17:58:31.955Z,101420.37
2017-11-01T18:01:00.373Z,101427.88
2017-11-01T18:03:28.751Z,101414.48
2017-11-01T18:05:57.875Z,101417.98
2017-11-01T18:08:26.381Z,101407.61
2017-11-01T18:10:54.780Z,101399.98
2017-11-01T18:13:23.147Z,101406.41
2017-11-01T18:15:52.509Z,101399.92
2017-11-01T18:18:21.677Z,101398.83
2017-11-01T18:20:50.062Z,101404.53
2017-11-01T18:23:19.214Z,101398.92
2017-11-01T18:25:48.339Z,101404.30
2017-11-01T18:28:17.665Z,101399.37
2017-11-01T18:30:46.285Z,101393.81
2017-11-01T18:33:16.090Z,101394.80
2017-11-01T18:35:44.441Z,101389.79
2017-11-01T18:38:13.692Z,101382.30
2017-11-01T18:40:43.616Z,101385.98
2017-11-01T18:43:13.216Z,101381.72
2017-11-01T18:45:41.604Z,101375.59
2017-11-01T18:48:09.971Z,101378.11
2017-11-01T18:50:38.760Z,101375.33
2017-11-01T18:53:07.195Z,101375.18
2017-11-01T18:55:36.574Z,101368.38
2017-11-01T18:58:06.358Z,101361.54
2017-11-01T19:00:34.748Z,101359.91
2017-11-01T19:03:03.315Z,101352.53
2017-11-01T19:05:31.667Z,101353.05
2017-11-01T19:08:01.656Z,101345.98
2017-11-01T19:10:30.001Z,101351.48
2017-11-01T19:12:58.371Z,101357.72
2017-11-01T19:15:27.155Z,101362.69
2017-11-01T19:17:58.281Z,101366.00
2017-11-01T19:20:26.694Z,101350.23
2017-11-01T19:22:55.089Z,101354.48
2017-11-01T19:25:23.432Z,101352.30
2017-11-01T19:27:52.021Z,101355.43
2017-11-01T19:30:20.408Z,101352.42
2017-11-01T19:32:49.520Z,101348.27
2017-11-01T19:35:17.898Z,101344.94
2017-11-01T19:37:47.252Z,101333.50
2017-11-01T19:40:15.600Z,101341.52
2017-11-01T19:42:44.758Z,101350.27
2017-11-01T19:45:13.178Z,101355.77
2017-11-01T19:47:42.158Z,101357.00
2017-11-01T19:50:10.516Z,101354.77
2017-11-01T19:52:38.913Z,101353.14
2017-11-01T19:55:07.275Z,101350.30
2017-11-01T19:57:36.747Z,101361.33
2017-11-01T20:00:06.214Z,101355.84
2017-11-01T20:02:34.969Z,101345.07
2017-11-01T20:05:05.247Z,101344.52
2017-11-01T20:07:35.206Z,101350.27
2017-11-01T20:10:05.291Z,101350.64
2017-11-01T20:12:34.513Z,101351.64
2017-11-01T20:15:02.996Z,101345.33
2017-11-01T20:17:31.359Z,101351.74
2017-11-01T20:20:00.593Z,101353.92
2017-11-01T20:22:29.308Z,101368.78
2017-11-01T20:24:58.470Z,101352.34
2017-11-01T20:27:28.027Z,101356.67
2017-11-01T20:29:57.342Z,101354.79
2017-11-01T20:32:27.184Z,101352.61
2017-11-01T20:34:57.485Z,101349.47
2017-11-01T20:37:26.624Z,101335.18
2017-11-01T20:39:55.051Z,101338.11
2017-11-01T20:42:23.498Z,101336.38
2017-11-01T20:44:51.981Z,101332.01
2017-11-01T20:47:20.854Z,101332.97
2017-11-01T20:49:49.235Z,101324.20
2017-11-01T20:52:17.651Z,101335.34
2017-11-01T20:54:46.013Z,101324.89
2017-11-01T20:57:14.603Z,101331.28
2017-11-01T20:59:43.664Z,101321.23
2017-11-01T21:02:12.273Z,101321.52
2017-11-01T21:04:41.486Z,101319.30
2017-11-01T21:07:09.954Z,101305.34
2017-11-01T21:09:38.525Z,101301.86
2017-11-01T21:12:07.235Z,101297.05
2017-11-01T21:14:35.778Z,101292.88
2017-11-01T21:17:04.195Z,101300.04
2017-11-01T21:19:34.124Z,101291.47
2017-11-01T21:22:02.605Z,101291.36
2017-11-01T21:24:30.968Z,101273.43
2017-11-01T21:26:59.300Z,101277.98
2017-11-01T21:29:28.511Z,101278.84
2017-11-01T21:31:56.882Z,101274.05
2017-11-01T21:34:25.971Z,101264.94
2017-11-01T21:36:55.157Z,101258.00
2017-11-01T21:39:23.515Z,101258.38
2017-11-01T21:41:51.876Z,101255.55
2017-11-01T21:44:20.262Z,101252.14
2017-11-01T21:46:48.637Z,101246.02
2017-11-01T21:49:17.018Z,101247.79
2017-11-01T21:51:45.618Z,101241.44
2017-11-01T21:54:13.973Z,101227.16
2017-11-01T21:56:42.580Z,101230.55
2017-11-01T21:59:10.976Z,101240.77
2017-11-01T22:01:40.115Z,101228.34
2017-11-01T22:04:08.485Z,101233.55
2017-11-01T22:06:38.102Z,101233.16
2017-11-01T22:09:06.454Z,101225.69
2017-11-01T22:11:35.501Z,101242.35
2017-11-01T22:14:04.054Z,101254.86
2017-11-01T22:16:32.428Z,101254.32
2017-11-01T22:19:00.757Z,101241.02
2017-11-01T22:21:29.151Z,101241.52
2017-11-01T22:23:57.753Z,101249.14
2017-11-01T22:26:26.630Z,101255.34
2017-11-01T22:28:55.340Z,101254.09
2017-11-01T22:31:23.924Z,101243.83
2017-11-01T22:33:52.524Z,101240.04
2017-11-01T22:36:21.772Z,101241.33
2017-11-01T22:38:50.126Z,101245.16
2017-11-01T22:41:18.518Z,101249.95
2017-11-01T22:43:47.684Z,101252.98
2017-11-01T22:46:16.296Z,101259.73
2017-11-01T22:48:45.286Z,101255.41
2017-11-01T22:51:14.234Z,101243.05
2017-11-01T22:53:43.191Z,101245.50
2017-11-01T22:56:12.045Z,101245.70
2017-11-01T22:58:41.213Z,101238.98
2017-11-01T23:01:10.131Z,101243.80
2017-11-01T23:03:39.404Z,101232.02
2017-11-01T23:06:07.888Z,101241.75
2017-11-01T23:08:36.223Z,101242.63
2017-11-01T23:11:05.357Z,101237.59
2017-11-01T23:13:33.741Z,101234.88
2017-11-01T23:16:02.112Z,101237.97
2017-11-01T23:18:32.001Z,101238.36
2017-11-01T23:21:01.336Z,101242.72
2017-11-01T23:23:29.886Z,101233.43
2017-11-01T23:25:58.434Z,101224.88
2017-11-01T23:28:27.726Z,101218.17
2017-11-01T23:30:56.854Z,101229.64
2017-11-01T23:33:25.992Z,101231.56
2017-11-01T23:35:55.118Z,101230.03
2017-11-01T23:38:23.462Z,101226.76
2017-11-01T23:40:51.828Z,101233.70
2017-11-01T23:43:21.141Z,101230.71
2017-11-01T23:45:50.241Z,101228.94
2017-11-01T23:48:19.367Z,101222.45
2017-11-01T23:50:47.782Z,101224.42
2017-11-01T23:53:16.913Z,101224.59
2017-11-01T23:55:46.707Z,101201.26
2017-11-01T23:58:15.863Z,101193.33
